createdAt,value
2022-09-07T00:02:30.495Z,101420.97
2022-09-07T00:04:56.919Z,101413.31
2022-09-07T00:07:30.400Z,101405.06
2022-09-07T00:10:03.434Z,101391.34
2022-09-07T00:12:36.450Z,101396.38
2022-09-07T00:15:11.413Z,101389.94
2022-09-07T00:17:37.903Z,101389.72
2022-09-07T00:20:14.424Z,101393.16
2022-09-07T00:22:40.895Z,101395.63
2022-09-07T00:25:14.433Z,101400.88
2022-09-07T00:27:41.300Z,101391.97
2022-09-07T00:30:16.442Z,101392.78
2022-09-07T00:32:50.420Z,101395.03
2022-09-07T00:35:16.961Z,101389.00
2022-09-07T00:37:50.430Z,101400.19
2022-09-07T00:40:17.029Z,101387.47
2022-09-07T00:42:50.433Z,101397.38
2022-09-07T00:45:19.481Z,101391.31
2022-09-07T00:48:04.408Z,101390.94
2022-09-07T00:50:36.409Z,101381.50
2022-09-07T00:53:13.432Z,101378.91
2022-09-07T00:55:42.543Z,101381.59
2022-09-07T00:58:10.232Z,101383.84
2022-09-07T01:00:44.407Z,101382.22
2022-09-07T01:03:11.485Z,101392.31
2022-09-07T01:05:52.421Z,101388.66
2022-09-07T01:08:18.987Z,101395.88
2022-09-07T01:10:54.442Z,101412.03
2022-09-07T01:13:20.857Z,101412.41
2022-09-07T01:16:14.493Z,101431.59
2022-09-07T01:19:16.479Z,101442.91
2022-09-07T01:22:24.570Z,101448.75
2022-09-07T01:25:07.035Z,101448.34
2022-09-07T01:27:56.407Z,101458.84
2022-09-07T01:30:24.495Z,101452.16
2022-09-07T01:33:16.405Z,101458.63
2022-09-07T01:36:01.114Z,101458.19
2022-09-07T01:39:08.386Z,101456.78
2022-09-07T01:41:57.451Z,101456.38
2022-09-07T01:44:40.409Z,101455.94
2022-09-07T01:47:17.995Z,101445.44
2022-09-07T01:50:35.412Z,101440.19
2022-09-07T01:53:09.549Z,101428.91
2022-09-07T01:56:06.408Z,101410.03
2022-09-07T01:58:46.394Z,101398.38
2022-09-07T02:01:28.521Z,101380.28
2022-09-07T02:04:16.391Z,101363.38
2022-09-07T02:06:49.002Z,101369.44
2022-09-07T02:09:40.400Z,101358.56
2022-09-07T02:12:15.856Z,101354.97
2022-09-07T02:14:54.405Z,101343.28
2022-09-07T02:17:38.408Z,101345.53
2022-09-07T02:20:11.270Z,101344.72
2022-09-07T02:22:48.415Z,101344.13
2022-09-07T02:25:21.924Z,101343.53
2022-09-07T02:28:02.388Z,101337.69
2022-09-07T02:30:42.473Z,101342.13
2022-09-07T02:33:09.395Z,101345.75
2022-09-07T02:35:43.405Z,101338.09
2022-09-07T02:38:09.991Z,101340.13
2022-09-07T02:40:36.355Z,101342.13
2022-09-07T02:43:14.385Z,101337.94
2022-09-07T02:46:08.469Z,101336.72
2022-09-07T02:49:06.393Z,101331.50
2022-09-07T02:51:51.786Z,101332.50
2022-09-07T02:54:34.393Z,101330.94
2022-09-07T02:57:08.406Z,101327.13
2022-09-07T02:59:52.402Z,101332.97
2022-09-07T03:02:20.808Z,101335.78
2022-09-07T03:05:18.407Z,101337.97
2022-09-07T03:07:51.554Z,101354.09
2022-09-07T03:10:25.386Z,101352.84
2022-09-07T03:12:52.011Z,101342.34
2022-09-07T03:15:21.629Z,101340.72
2022-09-07T03:17:54.420Z,101339.72
2022-09-07T03:20:22.269Z,101349.19
2022-09-07T03:23:00.383Z,101333.25
2022-09-07T03:25:33.409Z,101339.91
2022-09-07T03:28:06.629Z,101343.31
2022-09-07T03:30:50.494Z,101343.09
2022-09-07T03:33:17.474Z,101346.53
2022-09-07T03:36:05.376Z,101349.34
2022-09-07T03:38:31.989Z,101350.38
2022-09-07T03:41:10.371Z,101342.53
2022-09-07T03:43:36.782Z,101344.13
2022-09-07T03:46:12.425Z,101332.63
2022-09-07T03:48:39.403Z,101333.84
2022-09-07T03:51:08.299Z,101320.97
2022-09-07T03:53:44.382Z,101305.22
2022-09-07T03:56:16.157Z,101285.25
2022-09-07T03:58:50.386Z,101281.44
2022-09-07T04:01:19.457Z,101277.22
2022-09-07T04:03:47.086Z,101286.88
2022-09-07T04:06:20.422Z,101296.56
2022-09-07T04:08:47.062Z,101297.56
2022-09-07T04:11:16.924Z,101309.09
2022-09-07T04:13:50.368Z,101312.31
2022-09-07T04:16:28.477Z,101300.19
2022-09-07T04:18:54.876Z,101302.22
2022-09-07T04:21:30.362Z,101303.88
2022-09-07T04:23:56.812Z,101318.00
2022-09-07T04:26:29.025Z,101332.31
2022-09-07T04:29:02.362Z,101321.66
2022-09-07T04:31:42.389Z,101326.31
2022-09-07T04:34:15.077Z,101317.66
2022-09-07T04:36:48.383Z,101329.34
2022-09-07T04:39:14.831Z,101326.34
2022-09-07T04:41:41.219Z,101319.47
2022-09-07T04:44:16.979Z,101322.09
2022-09-07T04:46:50.373Z,101313.06
2022-09-07T04:52:18.428Z,101313.88
2022-09-07T04:54:49.571Z,101326.97
2022-09-07T04:57:16.333Z,101321.31
2022-09-07T04:59:50.413Z,101319.69
2022-09-07T05:02:17.466Z,101322.47
2022-09-07T05:04:43.908Z,101319.66
2022-09-07T05:07:16.363Z,101312.22
2022-09-07T05:09:42.807Z,101308.97
2022-09-07T05:12:16.377Z,101313.00
2022-09-07T05:14:42.890Z,101316.22
2022-09-07T05:17:09.385Z,101313.19
2022-09-07T05:19:42.373Z,101317.41
2022-09-07T05:22:08.812Z,101314.38
2022-09-07T05:24:43.387Z,101315.56
2022-09-07T05:27:16.366Z,101320.00
2022-09-07T05:32:36.416Z,101295.78
2022-09-07T05:35:10.386Z,101292.03
2022-09-07T05:37:36.763Z,101299.28
2022-09-07T05:40:10.470Z,101304.31
2022-09-07T05:42:37.459Z,101304.75
2022-09-07T05:45:11.369Z,101303.28
2022-09-07T05:47:44.383Z,101304.69
2022-09-07T05:50:11.456Z,101306.06
2022-09-07T05:52:44.383Z,101305.66
2022-09-07T05:55:28.870Z,101309.06
2022-09-07T05:58:04.349Z,101312.28
2022-09-07T06:00:38.411Z,101315.97
2022-09-07T06:03:12.655Z,101314.66
2022-09-07T06:05:46.368Z,101330.59
2022-09-07T06:08:20.539Z,101330.94
2022-09-07T06:10:47.083Z,101340.44
2022-09-07T06:13:13.531Z,101335.91
2022-09-07T06:15:46.384Z,101332.69
2022-09-07T06:18:19.370Z,101336.94
2022-09-07T06:20:45.754Z,101336.66
2022-09-07T06:23:12.121Z,101331.97
2022-09-07T06:25:45.340Z,101346.09
2022-09-07T06:28:18.359Z,101340.09
2022-09-07T06:30:44.794Z,101336.94
2022-09-07T06:33:21.930Z,101348.63
2022-09-07T06:36:03.273Z,101345.38
2022-09-07T06:38:38.389Z,101357.50
2022-09-07T06:44:20.382Z,101354.09
2022-09-07T06:49:36.390Z,101344.69
2022-09-07T06:52:03.824Z,101335.78
2022-09-07T06:57:24.363Z,101327.53
2022-09-07T06:59:50.792Z,101337.28
2022-09-07T07:02:24.362Z,101341.63
2022-09-07T07:04:58.361Z,101348.03
2022-09-07T07:07:24.763Z,101349.34
2022-09-07T07:09:51.219Z,101351.16
2022-09-07T07:14:49.645Z,101348.72
2022-09-07T07:17:22.354Z,101351.19
2022-09-07T07:19:55.354Z,101350.94
2022-09-07T07:22:45.494Z,101345.81
2022-09-07T07:25:15.378Z,101351.72
2022-09-07T07:27:42.314Z,101347.69
2022-09-07T07:30:22.375Z,101347.88
2022-09-07T07:32:48.777Z,101350.69
2022-09-07T07:35:22.314Z,101359.94
2022-09-07T07:37:52.369Z,101367.13
2022-09-07T07:40:30.331Z,101362.69
2022-09-07T07:42:57.462Z,101368.34
2022-09-07T07:48:16.693Z,101373.81
2022-09-07T07:50:50.314Z,101376.38
2022-09-07T07:53:41.568Z,101381.16
2022-09-07T07:56:10.102Z,101381.31
2022-09-07T07:58:44.314Z,101389.81
2022-09-07T08:01:13.340Z,101386.56
2022-09-07T08:03:50.334Z,101391.06
2022-09-07T08:06:18.870Z,101394.06
2022-09-07T08:08:52.310Z,101389.75
2022-09-07T08:11:20.550Z,101397.59
2022-09-07T08:13:58.283Z,101400.06
2022-09-07T08:16:31.341Z,101401.56
2022-09-07T08:19:04.315Z,101403.59
2022-09-07T08:21:30.804Z,101408.38
2022-09-07T08:23:57.232Z,101410.94
2022-09-07T08:26:30.312Z,101412.38
2022-09-07T08:29:12.306Z,101411.16
2022-09-07T08:31:46.345Z,101410.97
2022-09-07T08:34:12.734Z,101406.56
2022-09-07T08:36:46.304Z,101402.53
2022-09-07T08:39:13.115Z,101403.72
2022-09-07T08:42:04.315Z,101405.97
2022-09-07T08:44:48.322Z,101402.44
2022-09-07T08:47:42.952Z,101405.91
2022-09-07T08:50:26.300Z,101415.53
2022-09-07T08:53:00.040Z,101414.88
2022-09-07T08:55:44.311Z,101424.53
2022-09-07T08:58:32.523Z,101423.19
2022-09-07T09:01:34.048Z,101424.34
2022-09-07T09:04:18.229Z,101424.53
2022-09-07T09:07:03.374Z,101418.66
2022-09-07T09:09:51.865Z,101420.88
2022-09-07T09:12:35.570Z,101427.50
2022-09-07T09:15:22.333Z,101413.84
2022-09-07T09:18:14.635Z,101407.88
2022-09-07T09:20:48.647Z,101410.72
2022-09-07T09:23:24.350Z,101412.63
2022-09-07T09:26:01.551Z,101411.91
2022-09-07T09:28:34.553Z,101416.09
2022-09-07T09:31:01.237Z,101416.41
2022-09-07T09:33:28.832Z,101421.16
2022-09-07T09:36:06.331Z,101412.81
2022-09-07T09:38:43.490Z,101411.66
2022-09-07T09:41:18.281Z,101407.88
2022-09-07T09:44:02.311Z,101405.38
2022-09-07T09:46:32.478Z,101409.69
2022-09-07T09:49:20.314Z,101409.75
2022-09-07T09:55:03.292Z,101410.97
2022-09-07T10:01:27.703Z,101402.72
2022-09-07T10:06:28.297Z,101397.69
2022-09-07T10:08:57.776Z,101395.19
2022-09-07T10:12:08.221Z,101397.88
2022-09-07T10:14:46.689Z,101405.38
2022-09-07T10:17:50.297Z,101394.25
2022-09-07T10:20:16.636Z,101394.31
2022-09-07T10:22:58.303Z,101397.47
2022-09-07T11:00:07.894Z,101385.44
2022-09-07T11:06:02.484Z,101382.84
2022-09-07T11:14:29.310Z,101381.75
2022-09-07T11:16:59.673Z,101370.31
2022-09-07T11:19:36.363Z,101381.16
2022-09-07T11:22:19.498Z,101381.69
2022-09-07T11:25:31.608Z,101379.03
2022-09-07T11:28:08.910Z,101383.81
2022-09-07T11:30:42.899Z,101371.84
2022-09-07T11:33:23.114Z,101375.03
2022-09-07T11:36:01.123Z,101378.22
2022-09-07T11:38:46.778Z,101378.81
2022-09-07T11:41:22.173Z,101379.13
2022-09-07T11:44:00.721Z,101382.28
2022-09-07T11:46:40.690Z,101375.13
2022-09-07T11:49:15.559Z,101377.00
2022-09-07T11:51:53.698Z,101375.66
2022-09-07T11:54:32.466Z,101379.63
2022-09-07T11:57:28.798Z,101379.63
2022-09-07T12:00:00.806Z,101371.94
2022-09-07T12:03:00.912Z,101376.16
2022-09-07T12:05:33.717Z,101373.69
2022-09-07T12:08:32.484Z,101373.69
2022-09-07T12:11:22.614Z,101375.53
2022-09-07T12:13:58.755Z,101370.31
2022-09-07T12:16:45.979Z,101359.09
2022-09-07T12:19:20.587Z,101364.34
2022-09-07T12:21:54.402Z,101360.97
2022-09-07T12:24:32.744Z,101360.81
2022-09-07T12:27:00.722Z,101361.56
2022-09-07T12:29:29.566Z,101364.63
2022-09-07T12:32:00.095Z,101361.66
2022-09-07T12:34:35.063Z,101353.84
2022-09-07T12:37:08.911Z,101352.97
2022-09-07T12:39:43.503Z,101356.63
2022-09-07T12:42:34.113Z,101351.19
2022-09-07T12:45:28.272Z,101349.41
2022-09-07T12:48:04.348Z,101341.31
2022-09-07T12:50:39.264Z,101342.88
2022-09-07T12:53:40.791Z,101342.72
2022-09-07T12:56:32.035Z,101338.19
2022-09-07T12:59:18.930Z,101328.88
2022-09-07T13:01:59.275Z,101331.59
2022-09-07T13:04:43.995Z,101319.50
2022-09-07T13:07:22.630Z,101324.56
2022-09-07T13:10:00.511Z,101325.91
2022-09-07T13:12:54.695Z,101321.81
2022-09-07T13:15:49.569Z,101312.91
2022-09-07T13:18:28.537Z,101314.19
2022-09-07T13:21:10.939Z,101309.56
2022-09-07T13:23:49.590Z,101303.75
2022-09-07T13:26:53.633Z,101299.84
2022-09-07T13:29:36.710Z,101296.28
2022-09-07T13:35:20.291Z,101305.84
2022-09-07T13:38:02.037Z,101291.31
2022-09-07T13:40:39.069Z,101294.59
2022-09-07T13:43:12.164Z,101298.25
2022-09-07T13:45:53.864Z,101299.53
2022-09-07T13:48:36.884Z,101295.72
2022-09-07T13:51:34.481Z,101294.94
2022-09-07T13:54:03.889Z,101293.63
2022-09-07T13:56:45.045Z,101290.09
2022-09-07T13:59:19.753Z,101290.50
2022-09-07T14:01:48.011Z,101286.88
2022-09-07T14:04:41.327Z,101285.63
2022-09-07T14:07:25.428Z,101288.81
2022-09-07T14:10:06.949Z,101293.31
2022-09-07T14:12:43.182Z,101291.66
2022-09-07T14:15:34.316Z,101289.88
2022-09-07T14:18:13.122Z,101285.56
2022-09-07T14:20:49.483Z,101290.75
2022-09-07T14:23:23.955Z,101279.00
2022-09-07T14:26:19.944Z,101281.16
2022-09-07T14:28:48.916Z,101286.00
2022-09-07T14:31:18.013Z,101280.25
2022-09-07T14:33:55.377Z,101281.78
2022-09-07T14:36:43.975Z,101278.50
2022-09-07T14:39:13.440Z,101281.84
2022-09-07T14:41:42.977Z,101279.47
2022-09-07T14:44:37.636Z,101279.13
2022-09-07T14:47:30.432Z,101273.69
2022-09-07T14:50:05.322Z,101277.88
2022-09-07T14:52:42.307Z,101287.59
2022-09-07T14:55:27.915Z,101281.81
2022-09-07T14:58:13.503Z,101267.69
2022-09-07T15:00:42.286Z,101273.03
2022-09-07T15:03:32.172Z,101265.50
2022-09-07T15:06:01.468Z,101267.56
2022-09-07T15:08:48.722Z,101262.88
2022-09-07T15:11:39.504Z,101262.38
2022-09-07T15:14:20.323Z,101255.75
2022-09-07T15:19:45.446Z,101255.28
2022-09-07T15:22:13.347Z,101242.97
2022-09-07T15:24:39.885Z,101250.06
2022-09-07T15:27:26.914Z,101240.19
2022-09-07T15:29:53.364Z,101238.28
2022-09-07T15:32:20.002Z,101232.19
2022-09-07T15:34:46.561Z,101239.31
2022-09-07T15:39:59.442Z,101236.13
2022-09-07T15:45:13.412Z,101239.22
2022-09-07T15:47:47.161Z,101236.69
2022-09-07T15:50:17.183Z,101239.13
2022-09-07T15:52:46.439Z,101241.66
2022-09-07T15:55:13.562Z,101247.47
2022-09-07T15:58:10.600Z,101242.78
2022-09-07T16:00:27.113Z,101240.06
2022-09-07T16:03:09.417Z,101234.72
2022-09-07T16:05:40.653Z,101234.69
2022-09-07T16:10:55.307Z,101241.66
2022-09-07T16:13:24.122Z,101239.16
2022-09-07T16:15:50.972Z,101237.69
2022-09-07T16:18:18.386Z,101234.59
2022-09-07T16:20:45.870Z,101228.00
2022-09-07T16:23:15.227Z,101226.06
2022-09-07T16:25:43.134Z,101231.72
2022-09-07T16:28:10.240Z,101230.38
2022-09-07T16:30:40.431Z,101231.41
2022-09-07T16:33:07.375Z,101226.34
2022-09-07T16:35:33.901Z,101222.59
2022-09-07T16:40:46.731Z,101216.28
2022-09-07T16:43:13.130Z,101216.28
2022-09-07T16:48:25.939Z,101214.31
2022-09-07T16:50:58.944Z,101214.81
2022-09-07T16:53:29.199Z,101204.78
2022-09-07T16:56:02.460Z,101203.19
2022-09-07T16:58:38.296Z,101203.47
2022-09-07T17:01:11.604Z,101205.09
2022-09-07T17:03:38.895Z,101214.41
2022-09-07T17:06:08.007Z,101215.97
2022-09-07T17:08:35.912Z,101222.63
2022-09-07T17:11:08.404Z,101212.53
2022-09-07T17:13:37.011Z,101213.84
2022-09-07T17:16:07.900Z,101215.97
2022-09-07T17:21:22.090Z,101211.16
2022-09-07T17:23:54.814Z,101218.06
2022-09-07T17:26:23.318Z,101211.13
2022-09-07T17:28:54.152Z,101209.75
2022-09-07T17:34:13.233Z,101198.81
2022-09-07T17:36:40.367Z,101204.13
2022-09-07T17:39:16.401Z,101205.94
2022-09-07T17:41:44.150Z,101211.47
2022-09-07T17:44:10.900Z,101204.78
2022-09-07T17:46:37.371Z,101205.50
2022-09-07T17:49:05.145Z,101205.91
2022-09-07T17:51:32.557Z,101209.44
2022-09-07T17:54:02.514Z,101206.50
2022-09-07T17:56:29.900Z,101199.81
2022-09-07T18:00:10.735Z,101197.63
2022-09-07T18:01:43.347Z,101200.19
2022-09-07T18:04:10.996Z,101206.19
2022-09-07T18:06:37.639Z,101196.31
2022-09-07T18:09:05.311Z,101206.47
2022-09-07T18:11:49.043Z,101205.28
2022-09-07T18:14:16.798Z,101209.66
2022-09-07T18:16:45.097Z,101204.81
2022-09-07T18:19:12.332Z,101201.56
2022-09-07T18:21:41.234Z,101204.34
2022-09-07T18:24:23.440Z,101191.81
2022-09-07T18:26:52.542Z,101195.13
2022-09-07T18:29:29.866Z,101198.94
2022-09-07T18:31:58.876Z,101199.34
2022-09-07T18:34:25.611Z,101190.22
2022-09-07T18:36:52.117Z,101199.78
2022-09-07T18:39:18.686Z,101189.06
2022-09-07T18:41:45.032Z,101195.63
2022-09-07T18:46:57.874Z,101191.53
2022-09-07T18:49:25.052Z,101197.84
2022-09-07T18:54:38.932Z,101197.50
2022-09-07T18:57:06.700Z,101190.66
2022-09-07T18:59:33.281Z,101199.53
2022-09-07T19:02:03.957Z,101205.75
2022-09-07T19:07:20.277Z,101203.09
2022-09-07T19:09:48.261Z,101194.59
2022-09-07T19:12:15.068Z,101193.47
2022-09-07T19:14:42.154Z,101185.94
2022-09-07T19:17:10.743Z,101190.81
2022-09-07T19:19:38.002Z,101184.34
2022-09-07T19:22:04.408Z,101185.31
2022-09-07T19:24:31.770Z,101189.00
2022-09-07T19:27:00.430Z,101196.56
2022-09-07T19:29:27.631Z,101190.25
2022-09-07T19:32:11.881Z,101194.72
2022-09-07T19:34:41.006Z,101193.56
2022-09-07T19:37:09.305Z,101197.94
2022-09-07T19:39:35.697Z,101198.63
2022-09-07T19:42:04.179Z,101194.03
2022-09-07T19:44:30.972Z,101199.75
2022-09-07T19:47:00.021Z,101192.31
2022-09-07T19:49:27.015Z,101201.72
2022-09-07T19:51:54.644Z,101198.34
2022-09-07T19:54:21.051Z,101199.84
2022-09-07T19:56:47.422Z,101191.63
2022-09-07T19:59:14.387Z,101187.81
2022-09-07T20:01:45.704Z,101191.13
2022-09-07T20:04:18.939Z,101190.16
2022-09-07T20:06:47.996Z,101185.63
2022-09-07T20:09:14.321Z,101183.78
2022-09-07T20:11:46.024Z,101186.63
2022-09-07T20:14:12.654Z,101183.41
2022-09-07T20:16:40.024Z,101177.25
2022-09-07T20:19:07.448Z,101174.78
2022-09-07T20:21:34.271Z,101173.88
2022-09-07T20:24:00.667Z,101175.06
2022-09-07T20:26:27.271Z,101169.00
2022-09-07T20:29:05.890Z,101166.38
2022-09-07T20:31:41.635Z,101164.78
2022-09-07T20:34:09.415Z,101161.78
2022-09-07T20:36:36.166Z,101155.16
2022-09-07T20:39:02.532Z,101150.09
2022-09-07T20:41:31.424Z,101156.25
2022-09-07T20:44:00.217Z,101140.13
2022-09-07T20:46:28.369Z,101148.66
2022-09-07T20:48:54.834Z,101136.06
2022-09-07T20:51:22.235Z,101145.41
2022-09-07T20:53:49.621Z,101147.22
2022-09-07T20:56:24.423Z,101145.84
2022-09-07T20:58:55.952Z,101149.69
2022-09-07T21:01:23.419Z,101150.56
2022-09-07T21:03:52.743Z,101149.41
2022-09-07T21:06:20.533Z,101145.38
2022-09-07T21:08:50.783Z,101141.03
2022-09-07T21:11:22.922Z,101148.53
2022-09-07T21:14:00.885Z,101151.16
2022-09-07T21:16:28.014Z,101152.63
2022-09-07T21:18:58.691Z,101145.75
2022-09-07T21:21:27.194Z,101149.16
2022-09-07T21:24:03.695Z,101151.00
2022-09-07T21:26:32.093Z,101145.59
2022-09-07T21:29:04.919Z,101141.38
2022-09-07T21:31:33.632Z,101142.41
2022-09-07T21:34:01.910Z,101132.69
2022-09-07T21:36:29.381Z,101135.09
2022-09-07T21:38:56.180Z,101133.50
2022-09-07T21:41:24.545Z,101137.59
2022-09-07T21:43:58.574Z,101135.22
2022-09-07T21:46:26.081Z,101126.16
2022-09-07T21:48:52.732Z,101130.59
2022-09-07T21:51:19.109Z,101124.56
2022-09-07T21:53:45.654Z,101117.19
2022-09-07T21:56:14.092Z,101118.06
2022-09-07T21:58:40.837Z,101115.50
2022-09-07T22:01:12.311Z,101115.16
2022-09-07T22:03:40.391Z,101118.53
2022-09-07T22:06:08.122Z,101113.88
2022-09-07T22:08:39.463Z,101115.03
2022-09-07T22:11:11.565Z,101115.91
2022-09-07T22:13:38.268Z,101121.16
2022-09-07T22:16:06.241Z,101115.31
2022-09-07T22:18:33.052Z,101118.59
2022-09-07T22:21:10.732Z,101115.56
2022-09-07T22:23:39.509Z,101111.38
2022-09-07T22:26:07.850Z,101105.34
2022-09-07T22:28:35.438Z,101105.19
2022-09-07T22:31:17.253Z,101108.59
2022-09-07T22:33:45.456Z,101108.59
2022-09-07T22:36:15.347Z,101102.63
2022-09-07T22:38:43.497Z,101096.50
2022-09-07T22:41:12.475Z,101103.53
2022-09-07T22:43:39.343Z,101107.34
2022-09-07T22:46:07.053Z,101104.50
2022-09-07T22:48:33.921Z,101101.66
2022-09-07T22:51:01.250Z,101104.88
2022-09-07T22:53:29.964Z,101105.22
2022-09-07T22:55:56.999Z,101095.31
2022-09-07T22:58:23.840Z,101086.22
2022-09-07T23:00:51.294Z,101086.81
2022-09-07T23:03:18.543Z,101080.34
2022-09-07T23:05:44.941Z,101081.69
2022-09-07T23:08:11.866Z,101063.94
2022-09-07T23:10:39.241Z,101066.16
2022-09-07T23:13:05.906Z,101065.13
2022-09-07T23:15:35.879Z,101063.91
2022-09-07T23:18:02.252Z,101063.47
2022-09-07T23:20:28.649Z,101057.38
2022-09-07T23:22:55.112Z,101064.25
2022-09-07T23:25:21.489Z,101060.00
2022-09-07T23:27:47.936Z,101058.88
2022-09-07T23:30:14.609Z,101053.72
2022-09-07T23:32:41.220Z,101059.47
2022-09-07T23:35:08.237Z,101053.25
2022-09-07T23:37:34.645Z,101045.03
2022-09-07T23:40:01.185Z,101040.81
2022-09-07T23:42:27.790Z,101039.44
2022-09-07T23:44:54.184Z,101033.00
2022-09-07T23:47:20.542Z,101029.38
2022-09-07T23:49:47.057Z,101018.44
2022-09-07T23:52:13.459Z,101026.81
2022-09-07T23:54:39.932Z,101023.91
2022-09-07T23:57:06.292Z,101022.47
2022-09-07T23:59:33.840Z,101020.78
